MTN324 KPRC-KLAX
Flight info
| Callsign | MTN324 |
|---|---|
| Flight time | 1h 2m |
| Altitude | 32000 |
| Route | WNSKI2 MUMTE FNNDA HLYWD1 |
| Aircraft | E75L/M-SDE3GILORVW/S |
Departure
| Time | 2026-04-27 19:58 |
|---|---|
| Airport | Prescott Regional Airport - Ernest A. Love Field (KPRC) |
Arrival
| Time | 2026-04-27 21:00 |
|---|---|
| Airport | Los Angeles International Airport (KLAX) |
| Time | Latitude | Longitude | Altitude | Speed | Heading |
|---|---|---|---|---|---|
| 2026-04-27 19:38 | 34.65026 | -112.42719 | 5021 ft | 0 kts | 44° |
| 2026-04-27 19:50 | 34.65027 | -112.42718 | 5021 ft | 1 kts | 44° |
| 2026-04-27 19:51 | 34.65034 | -112.42706 | 5020 ft | 2 kts | 63° |
| 2026-04-27 19:51 | 34.65036 | -112.42689 | 5020 ft | 3 kts | 96° |
| 2026-04-27 19:51 | 34.65024 | -112.42663 | 5022 ft | 5 kts | 130° |
| 2026-04-27 19:51 | 34.64995 | -112.42627 | 5023 ft | 6 kts | 135° |
| 2026-04-27 19:52 | 34.64988 | -112.42587 | 5022 ft | 5 kts | 58° |
| 2026-04-27 19:52 | 34.65024 | -112.42543 | 5021 ft | 10 kts | 40° |
| 2026-04-27 19:52 | 34.65098 | -112.42466 | 5021 ft | 17 kts | 42° |
| 2026-04-27 19:52 | 34.65192 | -112.42365 | 5022 ft | 19 kts | 41° |
| 2026-04-27 19:53 | 34.65419 | -112.42124 | 5010 ft | 19 kts | 41° |
| 2026-04-27 19:53 | 34.65527 | -112.42009 | 5001 ft | 22 kts | 41° |
| 2026-04-27 19:53 | 34.65635 | -112.41896 | 4996 ft | 19 kts | 41° |
| 2026-04-27 19:54 | 34.65741 | -112.41783 | 4991 ft | 20 kts | 41° |
| 2026-04-27 19:54 | 34.65840 | -112.41677 | 4987 ft | 20 kts | 42° |
| 2026-04-27 19:54 | 34.65954 | -112.41555 | 4981 ft | 24 kts | 41° |
| 2026-04-27 19:54 | 34.66064 | -112.41439 | 4973 ft | 17 kts | 41° |
| 2026-04-27 19:55 | 34.66147 | -112.41350 | 4967 ft | 14 kts | 41° |
| 2026-04-27 19:55 | 34.66218 | -112.41307 | 4957 ft | 12 kts | 26° |
| 2026-04-27 19:55 | 34.66272 | -112.41240 | 4958 ft | 8 kts | 78° |
| 2026-04-27 19:55 | 34.66270 | -112.41220 | 4959 ft | 0 kts | 113° |
| 2026-04-27 19:56 | 34.66263 | -112.41207 | 4960 ft | 3 kts | 123° |
| 2026-04-27 19:56 | 34.66237 | -112.41169 | 4961 ft | 9 kts | 133° |
| 2026-04-27 19:56 | 34.66194 | -112.41163 | 4963 ft | 5 kts | 213° |
| 2026-04-27 19:57 | 34.66175 | -112.41182 | 4963 ft | 19 kts | 221° |
| 2026-04-27 19:57 | 34.65884 | -112.41489 | 4985 ft | 90 kts | 221° |
| 2026-04-27 19:57 | 34.65237 | -112.42172 | 5019 ft | 153 kts | 221° |
| 2026-04-27 19:57 | 34.64353 | -112.43102 | 5583 ft | 177 kts | 221° |
| 2026-04-27 19:58 | 34.63378 | -112.44007 | 6206 ft | 180 kts | 211° |
| 2026-04-27 19:58 | 34.62206 | -112.44462 | 6993 ft | 183 kts | 176° |
| 2026-04-27 19:58 | 34.61183 | -112.43572 | 7668 ft | 204 kts | 120° |
| 2026-04-27 19:58 | 34.61148 | -112.41806 | 8388 ft | 220 kts | 79° |
| 2026-04-27 19:59 | 34.61400 | -112.39988 | 9115 ft | 217 kts | 94° |
| 2026-04-27 19:59 | 34.61301 | -112.38153 | 9781 ft | 218 kts | 104° |
| 2026-04-27 19:59 | 34.60829 | -112.36386 | 10166 ft | 230 kts | 122° |
| 2026-04-27 19:59 | 34.59985 | -112.34722 | 10682 ft | 235 kts | 127° |
| 2026-04-27 20:00 | 34.59111 | -112.33005 | 11243 ft | 243 kts | 128° |
| 2026-04-27 20:00 | 34.58189 | -112.31249 | 11786 ft | 251 kts | 128° |
| 2026-04-27 20:00 | 34.57201 | -112.29495 | 12352 ft | 257 kts | 135° |
| 2026-04-27 20:00 | 34.55807 | -112.28198 | 12909 ft | 252 kts | 163° |
| 2026-04-27 20:01 | 34.54117 | -112.27773 | 13580 ft | 246 kts | 186° |
| 2026-04-27 20:01 | 34.52467 | -112.28156 | 14280 ft | 240 kts | 206° |
| 2026-04-27 20:01 | 34.51043 | -112.29183 | 14963 ft | 238 kts | 223° |
| 2026-04-27 20:01 | 34.49942 | -112.30685 | 15742 ft | 242 kts | 235° |
| 2026-04-27 20:02 | 34.48938 | -112.32472 | 16085 ft | 268 kts | 239° |
| 2026-04-27 20:02 | 34.47988 | -112.34515 | 16607 ft | 287 kts | 243° |
| 2026-04-27 20:02 | 34.47134 | -112.36790 | 17164 ft | 304 kts | 247° |
| 2026-04-27 20:02 | 34.46410 | -112.39268 | 17659 ft | 320 kts | 252° |
| 2026-04-27 20:03 | 34.45859 | -112.41900 | 18337 ft | 330 kts | 256° |
| 2026-04-27 20:03 | 34.45498 | -112.44669 | 19133 ft | 335 kts | 261° |
| 2026-04-27 20:03 | 34.45350 | -112.47499 | 20032 ft | 338 kts | 265° |
| 2026-04-27 20:03 | 34.45419 | -112.50354 | 20967 ft | 340 kts | 270° |
| 2026-04-27 20:04 | 34.45712 | -112.53214 | 21731 ft | 345 kts | 274° |
| 2026-04-27 20:04 | 34.46237 | -112.56101 | 22203 ft | 358 kts | 279° |
| 2026-04-27 20:04 | 34.47037 | -112.59017 | 22717 ft | 368 kts | 285° |
| 2026-04-27 20:04 | 34.47708 | -112.60889 | 23459 ft | 364 kts | 288° |
| 2026-04-27 20:05 | 34.49358 | -112.64554 | 24202 ft | 377 kts | 295° |
| 2026-04-27 20:05 | 34.50905 | -112.67165 | 24812 ft | 385 kts | 300° |
| 2026-04-27 20:05 | 34.52713 | -112.69606 | 25423 ft | 394 kts | 306° |
| 2026-04-27 20:05 | 34.54772 | -112.71832 | 26141 ft | 399 kts | 311° |
| 2026-04-27 20:06 | 34.57047 | -112.73795 | 26899 ft | 403 kts | 317° |
| 2026-04-27 20:06 | 34.59523 | -112.75459 | 27659 ft | 409 kts | 323° |
| 2026-04-27 20:06 | 34.62165 | -112.76789 | 28392 ft | 415 kts | 329° |
| 2026-04-27 20:06 | 34.64950 | -112.77807 | 29096 ft | 415 kts | 330° |
| 2026-04-27 20:07 | 34.67496 | -112.79225 | 29740 ft | 390 kts | 314° |
| 2026-04-27 20:07 | 34.69467 | -112.81265 | 30388 ft | 366 kts | 300° |
| 2026-04-27 20:07 | 34.70935 | -112.83688 | 30954 ft | 348 kts | 289° |
| 2026-04-27 20:07 | 34.71894 | -112.86309 | 31509 ft | 334 kts | 279° |
| 2026-04-27 20:08 | 34.72382 | -112.89012 | 32050 ft | 323 kts | 270° |
| 2026-04-27 20:08 | 34.72485 | -112.91767 | 32057 ft | 329 kts | 265° |
| 2026-04-27 20:08 | 34.72476 | -112.97457 | 32071 ft | 344 kts | 264° |
| 2026-04-27 20:09 | 34.72391 | -113.03404 | 31912 ft | 357 kts | 264° |
| 2026-04-27 20:09 | 34.72362 | -113.09456 | 31923 ft | 364 kts | 266° |
| 2026-04-27 20:10 | 34.72573 | -113.15647 | 31918 ft | 367 kts | 267° |
| 2026-04-27 20:10 | 34.72735 | -113.21844 | 31919 ft | 367 kts | 266° |
| 2026-04-27 20:11 | 34.72860 | -113.27005 | 31908 ft | 367 kts | 266° |
| 2026-04-27 20:11 | 34.73030 | -113.34254 | 31918 ft | 367 kts | 266° |
| 2026-04-27 20:12 | 34.73145 | -113.39412 | 31921 ft | 367 kts | 266° |
| 2026-04-27 20:12 | 34.73284 | -113.45612 | 31918 ft | 366 kts | 266° |
| 2026-04-27 20:13 | 34.73416 | -113.51805 | 31913 ft | 366 kts | 266° |
| 2026-04-27 20:13 | 34.73544 | -113.58003 | 31911 ft | 366 kts | 266° |
| 2026-04-27 20:14 | 34.73669 | -113.64156 | 31909 ft | 366 kts | 266° |
| 2026-04-27 20:14 | 34.73792 | -113.70347 | 31910 ft | 366 kts | 266° |
| 2026-04-27 20:15 | 34.73909 | -113.76549 | 31908 ft | 367 kts | 266° |
| 2026-04-27 20:15 | 34.74027 | -113.82764 | 31905 ft | 368 kts | 266° |
| 2026-04-27 20:16 | 34.74140 | -113.88948 | 31904 ft | 366 kts | 266° |
| 2026-04-27 20:16 | 34.74249 | -113.95131 | 31902 ft | 366 kts | 266° |
| 2026-04-27 20:17 | 34.74357 | -114.01316 | 31909 ft | 366 kts | 266° |
| 2026-04-27 20:17 | 34.74461 | -114.07506 | 31920 ft | 365 kts | 266° |
| 2026-04-27 20:18 | 34.74561 | -114.13653 | 31926 ft | 365 kts | 266° |
| 2026-04-27 20:18 | 34.74659 | -114.19835 | 31938 ft | 365 kts | 266° |
| 2026-04-27 20:19 | 34.74752 | -114.26018 | 31944 ft | 365 kts | 266° |
| 2026-04-27 20:19 | 34.74845 | -114.32201 | 31948 ft | 365 kts | 266° |
| 2026-04-27 20:20 | 34.74934 | -114.38380 | 31948 ft | 365 kts | 266° |
| 2026-04-27 20:20 | 34.75019 | -114.44529 | 31955 ft | 366 kts | 266° |
| 2026-04-27 20:21 | 34.75101 | -114.50717 | 31964 ft | 366 kts | 266° |
| 2026-04-27 20:21 | 34.75188 | -114.56926 | 31965 ft | 367 kts | 266° |
| 2026-04-27 20:22 | 34.75265 | -114.63132 | 31961 ft | 367 kts | 266° |
| 2026-04-27 20:22 | 34.75339 | -114.69349 | 31961 ft | 367 kts | 266° |
| 2026-04-27 20:23 | 34.74581 | -114.75382 | 31997 ft | 362 kts | 248° |
| 2026-04-27 20:23 | 34.71953 | -114.80560 | 31936 ft | 365 kts | 237° |
| 2026-04-27 20:24 | 34.68951 | -114.85521 | 31936 ft | 364 kts | 236° |
| 2026-04-27 20:24 | 34.65922 | -114.90449 | 31936 ft | 364 kts | 236° |
| 2026-04-27 20:25 | 34.62867 | -114.95371 | 31938 ft | 364 kts | 236° |
| 2026-04-27 20:25 | 34.59802 | -115.00285 | 31918 ft | 364 kts | 236° |
| 2026-04-27 20:26 | 34.56754 | -115.05151 | 31915 ft | 364 kts | 236° |
| 2026-04-27 20:26 | 34.53679 | -115.10050 | 31942 ft | 365 kts | 236° |
| 2026-04-27 20:27 | 34.50592 | -115.14955 | 31960 ft | 365 kts | 236° |
| 2026-04-27 20:27 | 34.47511 | -115.19843 | 31962 ft | 364 kts | 236° |
| 2026-04-27 20:28 | 34.44448 | -115.24701 | 31950 ft | 366 kts | 236° |
| 2026-04-27 20:28 | 34.41859 | -115.28796 | 31959 ft | 365 kts | 236° |
| 2026-04-27 20:29 | 34.38266 | -115.34472 | 31958 ft | 365 kts | 236° |
| 2026-04-27 20:29 | 34.35177 | -115.39347 | 31960 ft | 365 kts | 236° |
| 2026-04-27 20:30 | 34.32084 | -115.44219 | 31960 ft | 365 kts | 236° |
| 2026-04-27 20:30 | 34.28989 | -115.49090 | 31965 ft | 365 kts | 236° |
| 2026-04-27 20:31 | 34.25889 | -115.53959 | 31962 ft | 364 kts | 236° |
| 2026-04-27 20:31 | 34.22789 | -115.58825 | 31976 ft | 366 kts | 236° |
| 2026-04-27 20:32 | 34.19700 | -115.63676 | 31973 ft | 366 kts | 236° |
| 2026-04-27 20:32 | 34.16940 | -115.68791 | 32019 ft | 363 kts | 249° |
| 2026-04-27 20:33 | 34.15907 | -115.74761 | 31964 ft | 364 kts | 260° |
| 2026-04-27 20:33 | 34.15259 | -115.80810 | 31992 ft | 363 kts | 261° |
| 2026-04-27 20:34 | 34.14655 | -115.86824 | 32006 ft | 363 kts | 261° |
| 2026-04-27 20:34 | 34.14064 | -115.92879 | 32009 ft | 363 kts | 261° |
| 2026-04-27 20:35 | 34.13479 | -115.98939 | 32017 ft | 363 kts | 261° |
| 2026-04-27 20:35 | 34.12885 | -116.04996 | 32033 ft | 363 kts | 261° |
| 2026-04-27 20:36 | 34.12287 | -116.11045 | 32034 ft | 363 kts | 261° |
| 2026-04-27 20:36 | 34.11690 | -116.17071 | 32046 ft | 363 kts | 261° |
| 2026-04-27 20:37 | 34.11089 | -116.23132 | 32043 ft | 363 kts | 261° |
| 2026-04-27 20:37 | 34.10486 | -116.29185 | 31878 ft | 365 kts | 261° |
| 2026-04-27 20:38 | 34.10174 | -116.32219 | 31666 ft | 364 kts | 261° |
| 2026-04-27 20:38 | 34.09848 | -116.35261 | 31334 ft | 368 kts | 261° |
| 2026-04-27 20:38 | 34.09520 | -116.38323 | 30917 ft | 368 kts | 260° |
| 2026-04-27 20:38 | 34.09193 | -116.41379 | 30475 ft | 365 kts | 260° |
| 2026-04-27 20:39 | 34.08869 | -116.44395 | 30078 ft | 359 kts | 260° |
| 2026-04-27 20:39 | 34.08559 | -116.47295 | 29686 ft | 348 kts | 260° |
| 2026-04-27 20:39 | 34.08247 | -116.50171 | 29316 ft | 344 kts | 260° |
| 2026-04-27 20:39 | 34.07939 | -116.53027 | 28952 ft | 343 kts | 260° |
| 2026-04-27 20:40 | 34.07630 | -116.55882 | 28581 ft | 342 kts | 260° |
| 2026-04-27 20:40 | 34.07321 | -116.58717 | 28159 ft | 341 kts | 260° |
| 2026-04-27 20:40 | 34.07035 | -116.61560 | 27762 ft | 341 kts | 261° |
| 2026-04-27 20:40 | 34.06781 | -116.64398 | 27328 ft | 340 kts | 262° |
| 2026-04-27 20:41 | 34.06521 | -116.67239 | 26852 ft | 340 kts | 262° |
| 2026-04-27 20:41 | 34.06264 | -116.70072 | 26409 ft | 339 kts | 262° |
| 2026-04-27 20:41 | 34.06006 | -116.72868 | 25968 ft | 339 kts | 262° |
| 2026-04-27 20:41 | 34.05741 | -116.75687 | 25489 ft | 337 kts | 262° |
| 2026-04-27 20:42 | 34.05476 | -116.78494 | 25084 ft | 337 kts | 262° |
| 2026-04-27 20:42 | 34.05214 | -116.81309 | 24631 ft | 338 kts | 262° |
| 2026-04-27 20:42 | 34.04951 | -116.84124 | 24195 ft | 337 kts | 262° |
| 2026-04-27 20:42 | 34.04687 | -116.86938 | 23750 ft | 338 kts | 262° |
| 2026-04-27 20:43 | 34.04415 | -116.89764 | 23274 ft | 338 kts | 262° |
| 2026-04-27 20:43 | 34.04062 | -116.92549 | 22872 ft | 335 kts | 260° |
| 2026-04-27 20:43 | 34.03691 | -116.95327 | 22417 ft | 335 kts | 261° |
| 2026-04-27 20:43 | 34.03324 | -116.98099 | 21981 ft | 334 kts | 261° |
| 2026-04-27 20:44 | 34.02961 | -117.00862 | 21555 ft | 334 kts | 261° |
| 2026-04-27 20:44 | 34.02605 | -117.03585 | 21123 ft | 333 kts | 261° |
| 2026-04-27 20:44 | 34.02272 | -117.06347 | 20684 ft | 332 kts | 262° |
| 2026-04-27 20:44 | 34.01947 | -117.09108 | 20249 ft | 331 kts | 261° |
| 2026-04-27 20:45 | 34.01625 | -117.11854 | 19808 ft | 330 kts | 262° |
| 2026-04-27 20:45 | 34.01299 | -117.14588 | 19379 ft | 329 kts | 261° |
| 2026-04-27 20:45 | 34.00981 | -117.17282 | 18948 ft | 329 kts | 262° |
| 2026-04-27 20:45 | 34.00656 | -117.20008 | 18471 ft | 328 kts | 262° |
| 2026-04-27 20:46 | 34.00332 | -117.22729 | 17953 ft | 325 kts | 262° |
| 2026-04-27 20:46 | 34.00009 | -117.25417 | 17554 ft | 324 kts | 262° |
| 2026-04-27 20:46 | 33.99689 | -117.28099 | 17130 ft | 323 kts | 262° |
| 2026-04-27 20:46 | 33.99366 | -117.30779 | 16693 ft | 321 kts | 262° |
| 2026-04-27 20:47 | 33.99049 | -117.33436 | 16235 ft | 320 kts | 262° |
| 2026-04-27 20:47 | 33.98741 | -117.36080 | 15834 ft | 317 kts | 262° |
| 2026-04-27 20:47 | 33.98437 | -117.38671 | 15419 ft | 314 kts | 262° |
| 2026-04-27 20:47 | 33.98133 | -117.41245 | 15008 ft | 306 kts | 262° |
| 2026-04-27 20:48 | 33.97837 | -117.43768 | 14602 ft | 301 kts | 262° |
| 2026-04-27 20:48 | 33.97638 | -117.45450 | 14342 ft | 299 kts | 262° |
| 2026-04-27 20:48 | 33.97327 | -117.48735 | 13893 ft | 297 kts | 271° |
| 2026-04-27 20:48 | 33.97660 | -117.51190 | 13531 ft | 297 kts | 281° |
| 2026-04-27 20:49 | 33.98095 | -117.53624 | 13193 ft | 297 kts | 281° |
| 2026-04-27 20:49 | 33.98523 | -117.56056 | 12894 ft | 297 kts | 281° |
| 2026-04-27 20:49 | 33.98953 | -117.58491 | 12574 ft | 297 kts | 281° |
| 2026-04-27 20:49 | 33.99383 | -117.60924 | 12251 ft | 297 kts | 281° |
| 2026-04-27 20:50 | 33.99813 | -117.63361 | 11938 ft | 297 kts | 281° |
| 2026-04-27 20:50 | 34.00241 | -117.65790 | 11600 ft | 297 kts | 281° |
| 2026-04-27 20:50 | 34.00602 | -117.68237 | 11213 ft | 295 kts | 272° |
| 2026-04-27 20:50 | 34.00469 | -117.70635 | 10887 ft | 287 kts | 264° |
| 2026-04-27 20:51 | 34.00242 | -117.72996 | 10492 ft | 281 kts | 264° |
| 2026-04-27 20:51 | 34.00010 | -117.75315 | 10120 ft | 275 kts | 264° |
| 2026-04-27 20:51 | 33.99784 | -117.77590 | 9742 ft | 271 kts | 264° |
| 2026-04-27 20:51 | 33.99563 | -117.79824 | 9417 ft | 267 kts | 264° |
| 2026-04-27 20:52 | 33.99343 | -117.82038 | 9061 ft | 267 kts | 264° |
| 2026-04-27 20:52 | 33.99127 | -117.84262 | 8675 ft | 267 kts | 264° |
| 2026-04-27 20:52 | 33.98910 | -117.86483 | 8320 ft | 266 kts | 264° |
| 2026-04-27 20:52 | 33.98695 | -117.88693 | 7973 ft | 265 kts | 264° |
| 2026-04-27 20:53 | 33.98481 | -117.90898 | 7621 ft | 264 kts | 264° |
| 2026-04-27 20:53 | 33.98263 | -117.93094 | 7269 ft | 264 kts | 264° |
| 2026-04-27 20:53 | 33.98045 | -117.95288 | 6909 ft | 264 kts | 263° |
| 2026-04-27 20:53 | 33.97829 | -117.97492 | 6568 ft | 265 kts | 263° |
| 2026-04-27 20:54 | 33.97405 | -118.01833 | 5861 ft | 259 kts | 263° |
| 2026-04-27 20:54 | 33.97193 | -118.03974 | 5513 ft | 256 kts | 263° |
| 2026-04-27 20:54 | 33.96982 | -118.06094 | 5191 ft | 253 kts | 263° |
| 2026-04-27 20:55 | 33.96775 | -118.08184 | 4855 ft | 250 kts | 262° |
| 2026-04-27 20:55 | 33.96569 | -118.10244 | 4531 ft | 246 kts | 262° |
| 2026-04-27 20:55 | 33.96367 | -118.12281 | 4252 ft | 241 kts | 262° |
| 2026-04-27 20:55 | 33.96232 | -118.13548 | 4486 ft | 226 kts | 262° |
| 2026-04-27 20:56 | 33.95956 | -118.16188 | 3821 ft | 243 kts | 262° |
| 2026-04-27 20:56 | 33.95763 | -118.18167 | 3467 ft | 231 kts | 262° |
| 2026-04-27 20:56 | 33.95578 | -118.20012 | 3155 ft | 218 kts | 262° |
| 2026-04-27 20:56 | 33.95398 | -118.21784 | 2868 ft | 209 kts | 262° |
| 2026-04-27 20:57 | 33.95227 | -118.23500 | 2601 ft | 204 kts | 262° |
| 2026-04-27 20:57 | 33.95060 | -118.25171 | 2330 ft | 197 kts | 262° |
| 2026-04-27 20:57 | 33.94898 | -118.26790 | 2073 ft | 190 kts | 262° |
| 2026-04-27 20:57 | 33.94744 | -118.28321 | 1816 ft | 177 kts | 261° |
| 2026-04-27 20:58 | 33.94601 | -118.29738 | 1571 ft | 165 kts | 262° |
| 2026-04-27 20:58 | 33.94467 | -118.31066 | 1367 ft | 156 kts | 261° |
| 2026-04-27 20:58 | 33.94340 | -118.32307 | 1140 ft | 143 kts | 262° |
| 2026-04-27 20:58 | 33.94222 | -118.33476 | 963 ft | 140 kts | 262° |
| 2026-04-27 20:59 | 33.94106 | -118.34624 | 740 ft | 136 kts | 262° |
| 2026-04-27 20:59 | 33.93992 | -118.35740 | 554 ft | 135 kts | 262° |
| 2026-04-27 20:59 | 33.93915 | -118.36514 | 403 ft | 138 kts | 263° |
| 2026-04-27 20:59 | 33.93808 | -118.37608 | 216 ft | 132 kts | 261° |
| 2026-04-27 21:00 | 33.93700 | -118.38678 | 118 ft | 123 kts | 260° |
| 2026-04-27 21:00 | 33.93611 | -118.39558 | 108 ft | 76 kts | 264° |
| 2026-04-27 21:00 | 33.93632 | -118.39895 | 108 ft | 28 kts | 288° |
| 2026-04-27 21:00 | 33.93658 | -118.40121 | 105 ft | 26 kts | 264° |
| 2026-04-27 21:01 | 33.93648 | -118.40306 | 105 ft | 18 kts | 283° |
| 2026-04-27 21:01 | 33.93704 | -118.40409 | 107 ft | 14 kts | 333° |
| 2026-04-27 21:01 | 33.93804 | -118.40430 | 104 ft | 13 kts | 5° |
| 2026-04-27 21:01 | 33.93845 | -118.40340 | 101 ft | 15 kts | 86° |
| 2026-04-27 21:02 | 33.93878 | -118.40289 | 99 ft | 10 kts | 0° |
| 2026-04-27 21:02 | 33.93919 | -118.40292 | 96 ft | 6 kts | 359° |
| 2026-04-27 21:02 | 33.93934 | -118.40279 | 96 ft | 3 kts | 76° |
| 2026-04-27 21:02 | 33.93938 | -118.40229 | 96 ft | 11 kts | 84° |
| 2026-04-27 21:03 | 33.93948 | -118.40123 | 96 ft | 13 kts | 82° |
| 2026-04-27 21:03 | 33.93960 | -118.40028 | 96 ft | 13 kts | 85° |
| 2026-04-27 21:03 | 33.93970 | -118.39909 | 98 ft | 16 kts | 82° |
| 2026-04-27 21:03 | 33.94006 | -118.39814 | 96 ft | 12 kts | 54° |
| 2026-04-27 21:04 | 33.94027 | -118.39775 | 96 ft | 4 kts | 59° |
| 2026-04-27 21:04 | 33.94032 | -118.39765 | 95 ft | 0 kts | 58° |